KMKE/MKE METAR and TAF weather

Enter ICAO airport designator
Station Type Date Time Source
KMKE METAR 2020/11/25 22:52 UTC NOAA

KMKE 252252Z 04010KT 1SM R01L/P6000FT -RA BR OVC002 07/06 A2974 RMK AO2 SFC VIS 4 SLP074 P0002 T00670056


Station Type Date Time Source
KMKE Decoded METAR 2020/11/25 22:52 UTC NOAA

GEN MITCHELL INTERNATIONAL AIRPORT, WI, United States (KMKE) 42-57N 87-54W 206M
Nov 25, 2020 - 05:52 PM EST / 2020.11.25 2252 UTC
Wind: from the NE (040 degrees) at 12 MPH (10 KT):0
Visibility: 1 mile(s):0
Sky conditions: overcast
Weather: light rain; mist
Precipitation last hour: 0.02 inches
Temperature: 44.1 F (6.7 C)
Dew Point: 42.1 F (5.6 C)
Relative Humidity: 92%
Pressure (altimeter): 29.74 in. Hg (1007 hPa)
ob: KMKE 252252Z 04010KT 1SM R01L/P6000FT -RA BR OVC002 07/06 A2974 RMK AO2 SFC VIS 4 SLP074 P0002 T00670056
cycle: 23

Station Type Date Time Source
KMKE TAF 2020/11/25 21:39 UTC NOAA

TAF
AMD KMKE 252036Z 2521/2624 03008KT 2SM -RA BR OVC002
FM260300 01005KT 3SM BR VCSH OVC003
FM260600 33005KT 4SM BR OVC004
FM261200 28004KT P6SM BKN006
FM261900 23009KT P6SM SCT024

Example: see airport list